Elliot Lake, Canada
Current Conditions -  °F | °C
As of 2:00 PM on Friday 21 Nov 2014 (Local Time) from CYZE Reporting Station
Scattered Clouds Scattered Clouds  
Wind Chill: 13°   Ceiling: Unl
Heat Index: 25°   Visibility: 9mi
Dew Point: 12°   Wind: 13mph
Humidity: 59%   Direction: 260°W
Pressure: 30.27"   Gusts: 18mph
Location:  46.38°N, 82.65°W
Report Text: CYZE 211900Z AUTO 26011G16KT 9SM SCT038 M04/M11 A3027 RMK SLP265
Loading
Personal Weather Stations






























Interactive Weather Map New forecast layout! Learn more

10-Day Weather Forecast

Advertisements
Track Severe Weather on mobile